Time;durP1;ratioP1;P1;durP2;ratioP2;P2;SDS_P1;SDS_P2;PMS_P1;PMS_P2;Temp;Humidity;BMP_temperature;BMP_pressure;BME280_temperature;BME280_humidity;BME280_pressure;Samples;Min_cycle;Max_cycle;Signal;HPM_P1;HPM_P2
2023/05/25 00:01:19;;;;;;;;;;;;;;;;;;5046096;28;20023;-57
2023/05/25 00:03:45;;;;;;;;;;;;;;;;;;5040753;28;20103;-58
2023/05/25 00:06:11;;;;;;;;;;;;;;;;;;5045153;28;20032;-58
2023/05/25 00:08:39;;;;;;;;;;;;;;;;;;5044286;28;20280;-58
2023/05/25 00:11:05;;;;;;;;;;;;;;;;;;5047205;28;20373;-58
2023/05/25 00:13:31;;;;;;;;;;;;;;;;;;5045340;28;19988;-58
2023/05/25 00:15:56;;;;;;;;;;;;;;;;;;5045979;28;19956;-59
2023/05/25 00:18:23;;;;;;;;;;;;;;;;;;5046273;28;19915;-58
2023/05/25 00:20:52;;;;;;;;;;;;;;;;;;5047638;28;19992;-58
2023/05/25 00:23:18;;;;;;;;;;;;;;;;;;5045533;28;20328;-58
2023/05/25 00:25:44;;;;;;;;;;;;;;;;;;5046130;28;19920;-59
2023/05/25 00:28:10;;;;;;;;;;;;;;;;;;5045645;28;19977;-57
2023/05/25 00:30:36;;;;;;;;;;;;;;;;;;5046428;28;19921;-56
2023/05/25 00:33:03;;;;;;;;;;;;;;;;;;5045427;28;19944;-56
2023/05/25 00:35:29;;;;;;;;;;;;;;;;;;5046526;28;19909;-56
2023/05/25 00:37:55;;;;;;;;;;;;;;;;;;5045075;28;20349;-56
2023/05/25 00:40:21;;;;;;;;;;;;;;;;;;5043410;28;19991;-57
2023/05/25 00:42:47;;;;;;;;;;;;;;;;;;5043517;28;20429;-57
2023/05/25 00:45:12;;;;;;;;;;;;;;;;;;5045290;28;20391;-57
2023/05/25 00:47:38;;;;;;;;;;;;;;;;;;5045593;28;19936;-57
2023/05/25 00:50:04;;;;;;;;;;;;;;;;;;5045025;28;20329;-56
2023/05/25 00:52:30;;;;;;;;;;;;;;;;;;5041676;28;20300;-57
2023/05/25 00:54:56;;;;;;;;;;;;;;;;;;5042790;28;19988;-56
2023/05/25 00:57:22;;;;;;;;;;;;;;;;;;5043280;28;20360;-56
2023/05/25 00:59:48;;;;;;;;;;;;;;;;;;5045358;28;19919;-56
2023/05/25 01:02:16;;;;;;;;;;;;;;;;;;5045249;28;19959;-57
2023/05/25 01:04:44;;;;;;;;;;;;;;;;;;5044655;28;19920;-56
2023/05/25 01:07:11;;;;;;;;;;;;;;;;;;5043020;28;19912;-56
2023/05/25 01:09:37;;;;;;;;;;;;;;;;;;5042485;28;19920;-56
2023/05/25 01:12:03;;;;;;;;;;;;;;;;;;5045898;28;20373;-56
2023/05/25 01:14:29;;;;;;;;;;;;;;;;;;5047325;28;19916;-56
2023/05/25 01:16:55;;;;;;;;;;;;;;;;;;5025137;28;20356;-56
2023/05/25 01:19:21;;;;;;;;;;;;;;;;;;5040571;28;20344;-56
2023/05/25 01:21:48;;;;;;;;;;;;;;;;;;5040998;28;20210;-56
2023/05/25 01:24:16;;;;;;;;;;;;;;;;;;5040656;28;20011;-56
2023/05/25 01:26:42;;;;;;;;;;;;;;;;;;5047791;28;20451;-56
2023/05/25 01:29:08;;;;;;;;;;;;;;;;;;5050324;28;19923;-56
2023/05/25 01:31:34;;;;;;;;;;;;;;;;;;5047985;28;19995;-57
2023/05/25 01:34:00;;;;;;;;;;;;;;;;;;5048090;28;19921;-56
2023/05/25 01:36:26;;;;;;;;;;;;;;;;;;5047757;28;20000;-57
2023/05/25 01:38:52;;;;;;;;;;;;;;;;;;5046523;28;20379;-56
2023/05/25 01:41:18;;;;;;;;;;;;;;;;;;5047431;28;19994;-57
2023/05/25 01:43:44;;;;;;;;;;;;;;;;;;5048817;28;19987;-57
2023/05/25 01:46:10;;;;;;;;;;;;;;;;;;5042202;28;20038;-56
2023/05/25 01:48:36;;;;;;;;;;;;;;;;;;5048481;28;19947;-57
2023/05/25 01:51:02;;;;;;;;;;;;;;;;;;5048665;28;19916;-57
2023/05/25 01:53:28;;;;;;;;;;;;;;;;;;5046020;28;20131;-57
2023/05/25 01:55:56;;;;;;;;;;;;;;;;;;5048608;28;19997;-57
2023/05/25 01:58:22;;;;;;;;;;;;;;;;;;5029331;28;19920;-57
2023/05/25 02:00:48;;;;;;;;;;;;;;;;;;5047518;28;19940;-57
2023/05/25 02:03:14;;;;;;;;;;;;;;;;;;5046445;28;20006;-59
2023/05/25 02:05:40;;;;;;;;;;;;;;;;;;5048110;28;19951;-57
2023/05/25 02:08:06;;;;;;;;;;;;;;;;;;5049027;28;19948;-57
2023/05/25 02:10:31;;;;;;;;;;;;;;;;;;5029243;28;19963;-56
2023/05/25 02:12:57;;;;;;;;;;;;;;;;;;5047269;28;19951;-57
2023/05/25 02:15:23;;;;;;;;;;;;;;;;;;5030190;28;19979;-57
2023/05/25 02:17:50;;;;;;;;;;;;;;;;;;5048332;28;20339;-57
2023/05/25 02:20:16;;;;;;;;;;;;;;;;;;5048278;28;19973;-57
2023/05/25 02:22:42;;;;;;;;;;;;;;;;;;5048359;28;20265;-56
2023/05/25 02:25:08;;;;;;;;;;;;;;;;;;5044704;28;20045;-56
2023/05/25 02:27:34;;;;;;;;;;;;;;;;;;5048167;28;19951;-56
2023/05/25 02:30:00;;;;;;;;;;;;;;;;;;5045885;28;19921;-59
2023/05/25 02:32:28;;;;;;;;;;;;;;;;;;5048281;28;19940;-57
2023/05/25 02:34:54;;;;;;;;;;;;;;;;;;5046947;28;19931;-56
2023/05/25 02:37:20;;;;;;;;;;;;;;;;;;5042259;28;19947;-56
2023/05/25 02:39:46;;;;;;;;;;;;;;;;;;5045886;28;19998;-57
2023/05/25 02:42:12;;;;;;;;;;;;;;;;;;5045687;28;19963;-56
2023/05/25 02:44:38;;;;;;;;;;;;;;;;;;5045446;28;20225;-57
2023/05/25 02:47:03;;;;;;;;;;;;;;;;;;5046175;28;20127;-56
2023/05/25 02:49:29;;;;;;;;;;;;;;;;;;5046792;28;19940;-56
2023/05/25 02:51:55;;;;;;;;;;;;;;;;;;5045269;28;19920;-57
2023/05/25 02:54:21;;;;;;;;;;;;;;;;;;5045981;28;20376;-56
2023/05/25 02:56:47;;;;;;;;;;;;;;;;;;5046291;28;19913;-57
2023/05/25 02:59:13;;;;;;;;;;;;;;;;;;5048039;28;20005;-56
2023/05/25 03:01:39;;;;;;;;;;;;;;;;;;5040914;28;19958;-57
2023/05/25 03:04:05;;;;;;;;;;;;;;;;;;5045158;28;19951;-56
2023/05/25 03:06:32;;;;;;;;;;;;;;;;;;5046570;28;20076;-56
2023/05/25 03:08:58;;;;;;;;;;;;;;;;;;5046977;28;19928;-56
2023/05/25 03:11:24;;;;;;;;;;;;;;;;;;5045878;28;20000;-56
2023/05/25 03:13:50;;;;;;;;;;;;;;;;;;5045464;28;19959;-59
2023/05/25 03:16:16;;;;;;;;;;;;;;;;;;5048633;28;19936;-57
2023/05/25 03:18:41;;;;;;;;;;;;;;;;;;5043447;28;19908;-57
2023/05/25 03:21:07;;;;;;;;;;;;;;;;;;5043365;28;19913;-57
2023/05/25 03:23:33;;;;;;;;;;;;;;;;;;5047558;28;20031;-57
2023/05/25 03:25:59;;;;;;;;;;;;;;;;;;5046110;28;19975;-57
2023/05/25 03:28:25;;;;;;;;;;;;;;;;;;5045338;28;19988;-57
2023/05/25 03:30:51;;;;;;;;;;;;;;;;;;5046257;28;20394;-58
2023/05/25 03:33:17;;;;;;;;;;;;;;;;;;5047434;28;19952;-59
2023/05/25 03:35:43;;;;;;;;;;;;;;;;;;5045397;28;20073;-57
2023/05/25 03:38:09;;;;;;;;;;;;;;;;;;5048583;28;20309;-59
2023/05/25 03:40:35;;;;;;;;;;;;;;;;;;5045301;28;20442;-57
2023/05/25 03:43:01;;;;;;;;;;;;;;;;;;5046267;28;19909;-59
2023/05/25 03:45:27;;;;;;;;;;;;;;;;;;5048302;28;19978;-56
2023/05/25 03:47:53;;;;;;;;;;;;;;;;;;5046911;28;19955;-57
2023/05/25 03:50:19;;;;;;;;;;;;;;;;;;5045878;28;19940;-57
2023/05/25 03:52:45;;;;;;;;;;;;;;;;;;5045945;28;20461;-57
2023/05/25 03:55:11;;;;;;;;;;;;;;;;;;5047255;28;19956;-57
2023/05/25 03:57:37;;;;;;;;;;;;;;;;;;5045766;28;19981;-57
2023/05/25 04:00:04;;;;;;;;;;;;;;;;;;5037974;28;20399;-57
2023/05/25 04:02:30;;;;;;;;;;;;;;;;;;5043950;28;19924;-60
2023/05/25 04:04:56;;;;;;;;;;;;;;;;;;5046446;28;20272;-57
2023/05/25 04:07:22;;;;;;;;;;;;;;;;;;5045059;28;20084;-57
2023/05/25 04:09:47;;;;;;;;;;;;;;;;;;5044717;28;20020;-60
2023/05/25 04:12:13;;;;;;;;;;;;;;;;;;5043830;28;19958;-57
2023/05/25 04:14:41;;;;;;;;;;;;;;;;;;5046189;28;19963;-57
2023/05/25 04:17:07;;;;;;;;;;;;;;;;;;5025175;28;19913;-57
2023/05/25 04:19:33;;;;;;;;;;;;;;;;;;5047048;28;19912;-57
2023/05/25 04:21:59;;;;;;;;;;;;;;;;;;5045060;28;19970;-57
2023/05/25 04:24:25;;;;;;;;;;;;;;;;;;5044359;28;19947;-57
2023/05/25 04:26:51;;;;;;;;;;;;;;;;;;5027244;28;20003;-57
2023/05/25 04:29:17;;;;;;;;;;;;;;;;;;5047416;28;20391;-57
2023/05/25 04:31:44;;;;;;;;;;;;;;;;;;5044752;28;20359;-57
2023/05/25 04:34:10;;;;;;;;;;;;;;;;;;5028879;28;20635;-57
2023/05/25 04:36:37;;;;;;;;;;;;;;;;;;5046613;28;20015;-57
2023/05/25 04:39:03;;;;;;;;;;;;;;;;;;5044994;28;19943;-57
2023/05/25 04:41:29;;;;;;;;;;;;;;;;;;5043468;28;20077;-57
2023/05/25 04:43:55;;;;;;;;;;;;;;;;;;5047640;28;19944;-57
2023/05/25 04:46:21;;;;;;;;;;;;;;;;;;5046116;28;19980;-57
2023/05/25 04:48:47;;;;;;;;;;;;;;;;;;5046021;28;19951;-57
2023/05/25 04:51:13;;;;;;;;;;;;;;;;;;5039683;28;19979;-57
2023/05/25 04:53:39;;;;;;;;;;;;;;;;;;5043045;28;19913;-57
2023/05/25 04:56:05;;;;;;;;;;;;;;;;;;5041770;28;20003;-57
2023/05/25 04:58:32;;;;;;;;;;;;;;;;;;5045117;28;20051;-57
2023/05/25 05:00:58;;;;;;;;;;;;;;;;;;5045317;28;19909;-56
2023/05/25 05:03:24;;;;;;;;;;;;;;;;;;5027995;28;20050;-57
2023/05/25 05:05:50;;;;;;;;;;;;;;;;;;5045128;28;19956;-58
2023/05/25 05:08:16;;;;;;;;;;;;;;;;;;5028877;28;19919;-58
2023/05/25 05:10:42;;;;;;;;;;;;;;;;;;5045623;28;19952;-58
2023/05/25 05:13:10;;;;;;;;;;;;;;;;;;5045708;28;19908;-58
2023/05/25 05:15:35;;;;;;;;;;;;;;;;;;5042711;28;19913;-58
2023/05/25 05:18:02;;;;;;;;;;;;;;;;;;5044602;28;19956;-59
2023/05/25 05:20:28;;;;;;;;;;;;;;;;;;5042557;28;20423;-58
2023/05/25 05:22:54;;;;;;;;;;;;;;;;;;5046286;28;19912;-58
2023/05/25 05:25:20;;;;;;;;;;;;;;;;;;5042082;28;20007;-59
2023/05/25 05:27:46;;;;;;;;;;;;;;;;;;5042745;28;20352;-58
2023/05/25 05:30:12;;;;;;;;;;;;;;;;;;5041466;28;20466;-58
2023/05/25 05:32:38;;;;;;;;;;;;;;;;;;5042055;28;19944;-59
2023/05/25 05:35:04;;;;;;;;;;;;;;;;;;5044802;28;20041;-59
2023/05/25 05:37:30;;;;;;;;;;;;;;;;;;5044120;28;19955;-59
2023/05/25 05:39:56;;;;;;;;;;;;;;;;;;5042023;28;20478;-59
2023/05/25 05:42:22;;;;;;;;;;;;;;;;;;5045448;28;20329;-57
2023/05/25 05:44:48;;;;;;;;;;;;;;;;;;5038656;28;20011;-56
2023/05/25 05:47:14;;;;;;;;;;;;;;;;;;5041694;28;19959;-56
2023/05/25 05:49:40;;;;;;;;;;;;;;;;;;5040811;28;20034;-57
2023/05/25 05:52:06;;;;;;;;;;;;;;;;;;5029734;28;20052;-56
2023/05/25 05:54:32;;;;;;;;;;;;;;;;;;5036462;28;19948;-56
2023/05/25 05:56:58;;;;;;;;;;;;;;;;;;5037346;28;20277;-56
2023/05/25 05:59:25;;;;;;;;;;;;;;;;;;5039771;28;20074;-56
2023/05/25 06:01:51;;;;;;;;;;;;;;;;;;5036569;28;19908;-56
2023/05/25 06:04:17;;;;;;;;;;;;;;;;;;5039940;28;19963;-56
2023/05/25 06:06:44;;;;;;;;;;;;;;;;;;5032653;28;19987;-56
2023/05/25 06:09:10;;;;;;;;;;;;;;;;;;5036685;28;19909;-56
2023/05/25 06:11:36;;;;;;;;;;;;;;;;;;5036664;28;19917;-56
2023/05/25 06:14:02;;;;;;;;;;;;;;;;;;5044029;28;19970;-56
2023/05/25 06:16:28;;;;;;;;;;;;;;;;;;5043098;28;20369;-56
2023/05/25 06:18:54;;;;;;;;;;;;;;;;;;5040621;28;19909;-55
2023/05/25 06:21:20;;;;;;;;;;;;;;;;;;5041267;28;19911;-55
2023/05/25 06:23:47;;;;;;;;;;;;;;;;;;5043337;28;19916;-56
2023/05/25 06:26:13;;;;;;;;;;;;;;;;;;5043729;28;20345;-55
2023/05/25 06:28:39;;;;;;;;;;;;;;;;;;5042141;28;19917;-56
2023/05/25 06:31:05;;;;;;;;;;;;;;;;;;5042507;28;20728;-56
2023/05/25 06:33:31;;;;;;;;;;;;;;;;;;5046735;28;20364;-55
2023/05/25 06:35:59;;;;;;;;;;;;;;;;;;5048251;28;19944;-55
2023/05/25 06:38:25;;;;;;;;;;;;;;;;;;5035950;28;19992;-55
2023/05/25 06:40:51;;;;;;;;;;;;;;;;;;5025044;28;20042;-54
2023/05/25 06:43:17;;;;;;;;;;;;;;;;;;5042832;28;20402;-55
2023/05/25 06:45:43;;;;;;;;;;;;;;;;;;5041560;28;19961;-55
2023/05/25 06:48:09;;;;;;;;;;;;;;;;;;5048481;28;20382;-55
2023/05/25 06:50:35;;;;;;;;;;;;;;;;;;5042751;28;19960;-56
2023/05/25 06:53:01;;;;;;;;;;;;;;;;;;5044249;28;19913;-55
2023/05/25 06:55:27;;;;;;;;;;;;;;;;;;5037411;28;20022;-54
2023/05/25 06:57:53;;;;;;;;;;;;;;;;;;5044357;28;19908;-55
2023/05/25 07:00:20;;;;;;;;;;;;;;;;;;5040150;28;20375;-57
2023/05/25 07:02:46;;;;;;;;;;;;;;;;;;5043379;28;20381;-58
2023/05/25 07:05:12;;;;;;;;;;;;;;;;;;5050450;28;19952;-58
2023/05/25 07:07:38;;;;;;;;;;;;;;;;;;5044503;28;20007;-57
2023/05/25 07:10:04;;;;;;;;;;;;;;;;;;5027739;28;20260;-58
2023/05/25 07:12:30;;;;;;;;;;;;;;;;;;5038487;28;20331;-55
2023/05/25 07:14:56;;;;;;;;;;;;;;;;;;5041905;28;20291;-56
2023/05/25 07:17:22;;;;;;;;;;;;;;;;;;5042536;28;19916;-55
2023/05/25 07:19:48;;;;;;;;;;;;;;;;;;5039144;28;20004;-56
2023/05/25 07:22:17;;;;;;;;;;;;;;;;;;5043625;28;19916;-56
2023/05/25 07:24:43;;;;;;;;;;;;;;;;;;5044106;28;19924;-56
2023/05/25 07:27:09;;;;;;;;;;;;;;;;;;5044128;28;19964;-56
2023/05/25 07:29:35;;;;;;;;;;;;;;;;;;5041578;28;20687;-55
2023/05/25 07:32:01;;;;;;;;;;;;;;;;;;5043516;28;19924;-56
2023/05/25 07:34:27;;;;;;;;;;;;;;;;;;5041391;28;20398;-56
2023/05/25 07:36:53;;;;;;;;;;;;;;;;;;5038997;28;19913;-56
2023/05/25 07:39:19;;;;;;;;;;;;;;;;;;5044240;28;20712;-57
2023/05/25 07:41:45;;;;;;;;;;;;;;;;;;5042046;28;21265;-56
2023/05/25 07:44:11;;;;;;;;;;;;;;;;;;5038729;28;20391;-56
2023/05/25 07:46:37;;;;;;;;;;;;;;;;;;5042841;28;19916;-56
2023/05/25 07:49:05;;;;;;;;;;;;;;;;;;5040528;28;19919;-56
2023/05/25 07:51:31;;;;;;;;;;;;;;;;;;5042355;28;19948;-56
2023/05/25 07:53:57;;;;;;;;;;;;;;;;;;5041197;28;20399;-56
2023/05/25 07:56:24;;;;;;;;;;;;;;;;;;5038806;28;19963;-56
2023/05/25 07:58:50;;;;;;;;;;;;;;;;;;5044249;28;20019;-56
2023/05/25 08:01:16;;;;;;;;;;;;;;;;;;5039948;28;20415;-55
2023/05/25 08:03:42;;;;;;;;;;;;;;;;;;5038221;28;20265;-55
2023/05/25 08:06:08;;;;;;;;;;;;;;;;;;5044051;28;20372;-56
2023/05/25 08:08:35;;;;;;;;;;;;;;;;;;5036822;28;19976;-58
2023/05/25 08:11:01;;;;;;;;;;;;;;;;;;5032476;28;20380;-56
2023/05/25 08:13:27;;;;;;;;;;;;;;;;;;5036772;28;19936;-56
2023/05/25 08:15:53;;;;;;;;;;;;;;;;;;5042144;28;20021;-56
2023/05/25 08:18:19;;;;;;;;;;;;;;;;;;5038079;28;20225;-55
2023/05/25 08:20:45;;;;;;;;;;;;;;;;;;5042187;28;20384;-55
2023/05/25 08:23:11;;;;;;;;;;;;;;;;;;5046570;28;20003;-55
2023/05/25 08:25:37;;;;;;;;;;;;;;;;;;5043769;28;20002;-56
2023/05/25 08:28:03;;;;;;;;;;;;;;;;;;5038645;28;20426;-55
2023/05/25 08:30:31;;;;;;;;;;;;;;;;;;5022527;28;19921;-55
2023/05/25 08:32:57;;;;;;;;;;;;;;;;;;5035165;28;19970;-55
2023/05/25 08:35:23;;;;;;;;;;;;;;;;;;5039766;28;19943;-56
2023/05/25 08:37:49;;;;;;;;;;;;;;;;;;5039536;28;19919;-57
2023/05/25 08:40:15;;;;;;;;;;;;;;;;;;5038169;28;20043;-56
2023/05/25 08:42:41;;;;;;;;;;;;;;;;;;5035407;28;20008;-56
2023/05/25 08:45:08;;;;;;;;;;;;;;;;;;5037373;28;19912;-58
2023/05/25 08:47:34;;;;;;;;;;;;;;;;;;5036542;28;19999;-56
2023/05/25 08:50:02;;;;;;;;;;;;;;;;;;5036303;28;19939;-57
2023/05/25 08:52:28;;;;;;;;;;;;;;;;;;5039686;28;20061;-57
2023/05/25 08:54:54;;;;;;;;;;;;;;;;;;5034811;28;20000;-57
2023/05/25 08:57:20;;;;;;;;;;;;;;;;;;5037237;28;19917;-57
2023/05/25 08:59:47;;;;;;;;;;;;;;;;;;5039954;28;20317;-57
2023/05/25 09:02:13;;;;;;;;;;;;;;;;;;5035344;28;20225;-56
2023/05/25 09:04:39;;;;;;;;;;;;;;;;;;5037906;28;20003;-56
2023/05/25 09:07:05;;;;;;;;;;;;;;;;;;5037999;28;20283;-55
2023/05/25 09:09:31;;;;;;;;;;;;;;;;;;5037983;28;20450;-57
2023/05/25 09:11:56;;;;;;;;;;;;;;;;;;5042975;28;19991;-57
2023/05/25 09:14:23;;;;;;;;;;;;;;;;;;5041533;28;19921;-55
2023/05/25 09:16:52;;;;;;;;;;;;;;;;;;5036393;28;19909;-56
2023/05/25 09:19:21;;;;;;;;;;;;;;;;;;5030470;28;19915;-56
2023/05/25 09:21:47;;;;;;;;;;;;;;;;;;5039990;28;19923;-55
2023/05/25 09:24:13;;;;;;;;;;;;;;;;;;5042549;28;19913;-56
2023/05/25 09:26:39;;;;;;;;;;;;;;;;;;5037416;28;20376;-56
2023/05/25 09:29:05;;;;;;;;;;;;;;;;;;5041016;28;20050;-56
2023/05/25 09:31:31;;;;;;;;;;;;;;;;;;5034674;28;19919;-55
2023/05/25 09:33:58;;;;;;;;;;;;;;;;;;5040457;28;20352;-55
2023/05/25 09:36:25;;;;;;;;;;;;;;;;;;5043087;28;20458;-55
2023/05/25 09:38:51;;;;;;;;;;;;;;;;;;5040506;28;19916;-59
2023/05/25 09:41:17;;;;;;;;;;;;;;;;;;5038168;28;20232;-59
2023/05/25 09:43:42;;;;;;;;;;;;;;;;;;5039319;28;20011;-58
2023/05/25 09:46:09;;;;;;;;;;;;;;;;;;5024023;28;20364;-58
2023/05/25 09:48:35;;;;;;;;;;;;;;;;;;5041928;28;19913;-58
2023/05/25 09:51:01;;;;;;;;;;;;;;;;;;5045142;28;19916;-59
2023/05/25 09:53:27;;;;;;;;;;;;;;;;;;5035912;28;19955;-58
2023/05/25 09:55:53;;;;;;;;;;;;;;;;;;5034997;28;19956;-58
2023/05/25 09:58:19;;;;;;;;;;;;;;;;;;5046694;28;20179;-58
2023/05/25 10:00:46;;;;;;;;;;;;;;;;;;5038359;28;19962;-57
2023/05/25 10:03:13;;;;;;;;;;;;;;;;;;5037765;28;19981;-58
2023/05/25 10:05:39;;;;;;;;;;;;;;;;;;5045215;28;19913;-59
2023/05/25 10:08:06;;;;;;;;;;;;;;;;;;5049129;28;19913;-60
2023/05/25 10:10:32;;;;;;;;;;;;;;;;;;5042234;28;19913;-59
2023/05/25 10:12:58;;;;;;;;;;;;;;;;;;5043061;28;20042;-59
2023/05/25 10:15:24;;;;;;;;;;;;;;;;;;5046707;28;19952;-61
2023/05/25 10:17:49;;;;;;;;;;;;;;;;;;5043420;28;19970;-62
2023/05/25 10:20:15;;;;;;;;;;;;;;;;;;5045910;28;19951;-61
2023/05/25 10:22:41;;;;;;;;;;;;;;;;;;5043667;28;19959;-60
2023/05/25 10:25:08;;;;;;;;;;;;;;;;;;5035450;28;20334;-59
2023/05/25 10:27:36;;;;;;;;;;;;;;;;;;5040392;28;20335;-55
2023/05/25 10:30:03;;;;;;;;;;;;;;;;;;5042605;28;19912;-55
2023/05/25 10:32:29;;;;;;;;;;;;;;;;;;5038694;28;19912;-60
2023/05/25 10:34:55;;;;;;;;;;;;;;;;;;5045876;28;19923;-53
2023/05/25 10:37:21;;;;;;;;;;;;;;;;;;5040808;28;19920;-54
2023/05/25 10:39:47;;;;;;;;;;;;;;;;;;5043913;28;19977;-52
2023/05/25 10:42:13;;;;;;;;;;;;;;;;;;5046604;28;19963;-52
2023/05/25 10:44:39;;;;;;;;;;;;;;;;;;5043908;28;19944;-51
2023/05/25 10:47:05;;;;;;;;;;;;;;;;;;5047077;28;19912;-51
2023/05/25 10:49:34;;;;;;;;;;;;;;;;;;5043578;28;19912;-53
2023/05/25 10:52:01;;;;;;;;;;;;;;;;;;5039883;28;19921;-52
2023/05/25 10:54:27;;;;;;;;;;;;;;;;;;5040038;28;19909;-53
2023/05/25 10:56:53;;;;;;;;;;;;;;;;;;5041912;28;19916;-52
2023/05/25 10:59:19;;;;;;;;;;;;;;;;;;5041804;28;20093;-51
2023/05/25 11:01:45;;;;;;;;;;;;;;;;;;5027153;28;20003;-53
2023/05/25 11:04:11;;;;;;;;;;;;;;;;;;5041371;28;19913;-53
2023/05/25 11:06:40;;;;;;;;;;;;;;;;;;5043375;28;20333;-52
2023/05/25 11:09:06;;;;;;;;;;;;;;;;;;5045668;28;20383;-52
2023/05/25 11:11:32;;;;;;;;;;;;;;;;;;5043391;28;20008;-52
2023/05/25 11:13:58;;;;;;;;;;;;;;;;;;5043643;28;20260;-53
2023/05/25 11:16:24;;;;;;;;;;;;;;;;;;5043726;28;19913;-53
2023/05/25 11:18:50;;;;;;;;;;;;;;;;;;5043760;28;20339;-52
2023/05/25 11:21:17;;;;;;;;;;;;;;;;;;5046844;28;19912;-52
2023/05/25 11:23:43;;;;;;;;;;;;;;;;;;5045597;28;20019;-52
2023/05/25 11:26:09;;;;;;;;;;;;;;;;;;5043006;28;20004;-52
2023/05/25 11:28:35;;;;;;;;;;;;;;;;;;5042999;28;20045;-51
2023/05/25 11:31:01;;;;;;;;;;;;;;;;;;5046378;28;19935;-52
2023/05/25 11:33:27;;;;;;;;;;;;;;;;;;5046984;28;19952;-52
2023/05/25 11:35:54;;;;;;;;;;;;;;;;;;5041916;28;19955;-52
2023/05/25 11:38:20;;;;;;;;;;;;;;;;;;5044145;28;19917;-52
2023/05/25 11:40:47;;;;;;;;;;;;;;;;;;5040389;28;20003;-52
2023/05/25 11:43:13;;;;;;;;;;;;;;;;;;5039902;28;19935;-51
2023/05/25 11:45:38;;;;;;;;;;;;;;;;;;5024840;28;19940;-52
2023/05/25 11:48:05;;;;;;;;;;;;;;;;;;5040867;28;20008;-51
2023/05/25 11:50:32;;;;;;;;;;;;;;;;;;5042213;28;20428;-52
2023/05/25 11:52:57;;;;;;;;;;;;;;;;;;5042791;28;19946;-51
2023/05/25 11:55:23;;;;;;;;;;;;;;;;;;5045471;28;19971;-52
2023/05/25 11:57:49;;;;;;;;;;;;;;;;;;5048061;28;19920;-51
2023/05/25 12:00:15;;;;;;;;;;;;;;;;;;5040544;28;19909;-51
2023/05/25 12:02:42;;;;;;;;;;;;;;;;;;5042811;28;20272;-52
2023/05/25 12:05:08;;;;;;;;;;;;;;;;;;5044688;28;20321;-52
2023/05/25 12:07:34;;;;;;;;;;;;;;;;;;5041719;28;20348;-51
2023/05/25 12:10:00;;;;;;;;;;;;;;;;;;5045139;28;19919;-52
2023/05/25 12:12:26;;;;;;;;;;;;;;;;;;5046940;28;19927;-51
2023/05/25 12:14:52;;;;;;;;;;;;;;;;;;5039013;28;19949;-51
2023/05/25 12:17:18;;;;;;;;;;;;;;;;;;5041007;28;20027;-52
2023/05/25 12:19:44;;;;;;;;;;;;;;;;;;5041533;28;20384;-51
2023/05/25 12:22:10;;;;;;;;;;;;;;;;;;5046023;28;19956;-52
2023/05/25 12:24:36;;;;;;;;;;;;;;;;;;5039662;28;20545;-51
2023/05/25 12:27:04;;;;;;;;;;;;;;;;;;5043859;28;19912;-54
2023/05/25 12:29:30;;;;;;;;;;;;;;;;;;5041608;28;19920;-53
2023/05/25 12:31:56;;;;;;;;;;;;;;;;;;5042858;28;20432;-54
2023/05/25 12:34:22;;;;;;;;;;;;;;;;;;5043191;28;19920;-54
2023/05/25 12:36:50;;;;;;;;;;;;;;;;;;5047651;28;19912;-54
2023/05/25 12:39:16;;;;;;;;;;;;;;;;;;5042826;28;19955;-54
2023/05/25 12:41:43;;;;;;;;;;;;;;;;;;5043393;28;20332;-54
2023/05/25 12:44:08;;;;;;;;;;;;;;;;;;5045084;28;20409;-54
2023/05/25 12:46:35;;;;;;;;;;;;;;;;;;5043396;28;19944;-54
2023/05/25 12:49:01;;;;;;;;;;;;;;;;;;5043584;28;20364;-54
2023/05/25 12:51:27;;;;;;;;;;;;;;;;;;5044120;28;20017;-54
2023/05/25 12:53:53;;;;;;;;;;;;;;;;;;5044433;28;20148;-54
2023/05/25 12:56:19;;;;;;;;;;;;;;;;;;5041379;28;19909;-54
2023/05/25 12:58:45;;;;;;;;;;;;;;;;;;5046776;28;19986;-54
2023/05/25 13:01:11;;;;;;;;;;;;;;;;;;5043696;28;19912;-54
2023/05/25 13:03:37;;;;;;;;;;;;;;;;;;5042806;28;20420;-54
2023/05/25 13:06:03;;;;;;;;;;;;;;;;;;5039346;28;20260;-54
2023/05/25 13:08:29;;;;;;;;;;;;;;;;;;5042695;28;19968;-54
2023/05/25 13:10:55;;;;;;;;;;;;;;;;;;5039670;28;19966;-52
2023/05/25 13:13:21;;;;;;;;;;;;;;;;;;5042680;28;19993;-52
2023/05/25 13:15:47;;;;;;;;;;;;;;;;;;5037515;28;19948;-52
2023/05/25 13:18:13;;;;;;;;;;;;;;;;;;5043585;28;20345;-52
2023/05/25 13:20:39;;;;;;;;;;;;;;;;;;5039179;28;19960;-52
2023/05/25 13:23:05;;;;;;;;;;;;;;;;;;5043076;28;19999;-52
2023/05/25 13:25:31;;;;;;;;;;;;;;;;;;5044484;28;19912;-53
2023/05/25 13:27:59;;;;;;;;;;;;;;;;;;5045918;28;19981;-52
2023/05/25 13:30:25;;;;;;;;;;;;;;;;;;5024075;28;19932;-52
2023/05/25 13:32:51;;;;;;;;;;;;;;;;;;5042241;28;20707;-52
2023/05/25 13:35:22;;;;;;;;;;;;;;;;;;5042827;28;20203;-52
2023/05/25 13:37:48;;;;;;;;;;;;;;;;;;5043730;28;20023;-53
2023/05/25 13:40:14;;;;;;;;;;;;;;;;;;5046295;28;19999;-52
2023/05/25 13:42:39;;;;;;;;;;;;;;;;;;5042022;28;20062;-52
2023/05/25 13:45:05;;;;;;;;;;;;;;;;;;5043224;28;19915;-52
2023/05/25 13:47:31;;;;;;;;;;;;;;;;;;5033304;28;20011;-53
2023/05/25 13:49:57;;;;;;;;;;;;;;;;;;5051162;28;19966;-52
2023/05/25 13:52:23;;;;;;;;;;;;;;;;;;5034215;28;19994;-53
2023/05/25 13:54:49;;;;;;;;;;;;;;;;;;5047604;28;19909;-53
2023/05/25 13:57:15;;;;;;;;;;;;;;;;;;5044925;28;19911;-53
2023/05/25 13:59:41;;;;;;;;;;;;;;;;;;5048268;28;20287;-53
2023/05/25 14:02:07;;;;;;;;;;;;;;;;;;5042760;28;20340;-53
2023/05/25 14:04:33;;;;;;;;;;;;;;;;;;5040277;28;19952;-52
2023/05/25 14:07:00;;;;;;;;;;;;;;;;;;5043908;28;19940;-53
2023/05/25 14:09:26;;;;;;;;;;;;;;;;;;5042158;28;20050;-52
2023/05/25 14:11:52;;;;;;;;;;;;;;;;;;5045117;28;20394;-53
2023/05/25 14:14:18;;;;;;;;;;;;;;;;;;5043598;28;20002;-52
2023/05/25 14:16:44;;;;;;;;;;;;;;;;;;5043163;28;19959;-52
2023/05/25 14:19:10;;;;;;;;;;;;;;;;;;5044023;28;20359;-53
2023/05/25 14:21:36;;;;;;;;;;;;;;;;;;5044741;28;20356;-52
2023/05/25 14:24:02;;;;;;;;;;;;;;;;;;5045880;28;19959;-53
2023/05/25 14:26:28;;;;;;;;;;;;;;;;;;5045159;28;19951;-52
2023/05/25 14:28:54;;;;;;;;;;;;;;;;;;5049353;28;19960;-52
2023/05/25 14:31:20;;;;;;;;;;;;;;;;;;5045809;28;20370;-53
2023/05/25 14:33:46;;;;;;;;;;;;;;;;;;5043365;28;20077;-52
2023/05/25 14:36:12;;;;;;;;;;;;;;;;;;5045411;28;19977;-52
2023/05/25 14:38:38;;;;;;;;;;;;;;;;;;5046838;28;19959;-52
2023/05/25 14:41:04;;;;;;;;;;;;;;;;;;5043429;28;19967;-52
2023/05/25 14:43:30;;;;;;;;;;;;;;;;;;5044105;28;20632;-52
2023/05/25 14:45:56;;;;;;;;;;;;;;;;;;5045234;28;19997;-52
2023/05/25 14:48:24;;;;;;;;;;;;;;;;;;5042198;28;20225;-52
2023/05/25 14:50:50;;;;;;;;;;;;;;;;;;5040839;28;20331;-52
2023/05/25 14:53:16;;;;;;;;;;;;;;;;;;5041892;28;20006;-53
2023/05/25 14:55:42;;;;;;;;;;;;;;;;;;5043691;28;19948;-52
2023/05/25 14:58:08;;;;;;;;;;;;;;;;;;5042230;28;19956;-52
2023/05/25 15:00:34;;;;;;;;;;;;;;;;;;5036664;28;19958;-52
2023/05/25 15:03:00;;;;;;;;;;;;;;;;;;5041968;28;19917;-53
2023/05/25 15:05:26;;;;;;;;;;;;;;;;;;5037258;28;19944;-52
2023/05/25 15:07:52;;;;;;;;;;;;;;;;;;5046013;28;19943;-52
2023/05/25 15:10:18;;;;;;;;;;;;;;;;;;5044214;28;20335;-52
2023/05/25 15:12:44;;;;;;;;;;;;;;;;;;5046416;28;19943;-52
2023/05/25 15:15:10;;;;;;;;;;;;;;;;;;5045474;28;19912;-52
2023/05/25 15:17:36;;;;;;;;;;;;;;;;;;5044651;28;19971;-52
2023/05/25 15:20:02;;;;;;;;;;;;;;;;;;5027823;28;20284;-52
2023/05/25 15:22:28;;;;;;;;;;;;;;;;;;5046806;28;19916;-52
2023/05/25 15:24:54;;;;;;;;;;;;;;;;;;5043947;28;20007;-52
2023/05/25 15:27:20;;;;;;;;;;;;;;;;;;5045705;28;19948;-52
2023/05/25 15:29:46;;;;;;;;;;;;;;;;;;5045274;28;20016;-52
2023/05/25 15:32:13;;;;;;;;;;;;;;;;;;5045300;28;20026;-52
2023/05/25 15:34:39;;;;;;;;;;;;;;;;;;5046541;28;20392;-52
2023/05/25 15:37:06;;;;;;;;;;;;;;;;;;5044003;28;19925;-52
2023/05/25 15:39:32;;;;;;;;;;;;;;;;;;5041403;28;20090;-52
2023/05/25 15:41:58;;;;;;;;;;;;;;;;;;5045503;28;20013;-52
2023/05/25 15:44:24;;;;;;;;;;;;;;;;;;5040353;28;19941;-52
2023/05/25 15:46:50;;;;;;;;;;;;;;;;;;5045257;28;20418;-52
2023/05/25 15:49:16;;;;;;;;;;;;;;;;;;5040553;28;19951;-52
2023/05/25 15:51:43;;;;;;;;;;;;;;;;;;5047108;28;19950;-52
2023/05/25 15:54:09;;;;;;;;;;;;;;;;;;5039445;28;19939;-52
2023/05/25 15:56:35;;;;;;;;;;;;;;;;;;5035319;28;19944;-51
2023/05/25 15:59:01;;;;;;;;;;;;;;;;;;5045703;28;19940;-51
2023/05/25 16:01:27;;;;;;;;;;;;;;;;;;5047860;28;20290;-52
2023/05/25 16:03:53;;;;;;;;;;;;;;;;;;5047152;28;19916;-51
2023/05/25 16:06:19;;;;;;;;;;;;;;;;;;5045008;28;19947;-51
2023/05/25 16:08:45;;;;;;;;;;;;;;;;;;5046622;28;19975;-51
2023/05/25 16:11:11;;;;;;;;;;;;;;;;;;5044698;28;19927;-52
2023/05/25 16:13:37;;;;;;;;;;;;;;;;;;5039161;28;19913;-52
2023/05/25 16:16:03;;;;;;;;;;;;;;;;;;5042436;28;19951;-52
2023/05/25 16:18:29;;;;;;;;;;;;;;;;;;5044216;28;20692;-52
2023/05/25 16:20:56;;;;;;;;;;;;;;;;;;5045653;28;19915;-52
2023/05/25 16:23:22;;;;;;;;;;;;;;;;;;5043678;28;19916;-52
2023/05/25 16:25:48;;;;;;;;;;;;;;;;;;5037976;28;19954;-51
2023/05/25 16:28:14;;;;;;;;;;;;;;;;;;5044561;28;19921;-52
2023/05/25 16:30:40;;;;;;;;;;;;;;;;;;5045000;28;20394;-51
2023/05/25 16:33:06;;;;;;;;;;;;;;;;;;5044136;28;19967;-52
2023/05/25 16:35:32;;;;;;;;;;;;;;;;;;5041447;28;19948;-52
2023/05/25 16:37:58;;;;;;;;;;;;;;;;;;5041809;28;19952;-52